sensor_id;sensor_type;location;lat;lon;timestamp;pressure;altitude;pressure_sealevel;temperature;humidity
70248;BME280;57641;51.416;5.506;2023-07-31T00:00:22;101192.72;;;21.15;67.11
70248;BME280;57641;51.416;5.506;2023-07-31T00:02:48;101192.97;;;21.00;67.50
70248;BME280;57641;51.416;5.506;2023-07-31T00:05:19;101190.75;;;20.64;67.40
70248;BME280;57641;51.416;5.506;2023-07-31T00:07:45;101189.47;;;20.80;68.01
70248;BME280;57641;51.416;5.506;2023-07-31T00:10:20;101183.22;;;20.80;68.08
70248;BME280;57641;51.416;5.506;2023-07-31T00:12:52;101183.56;;;21.10;67.10
70248;BME280;57641;51.416;5.506;2023-07-31T00:15:21;101193.34;;;21.11;66.60
70248;BME280;57641;51.416;5.506;2023-07-31T00:17:49;101185.44;;;21.09;67.07
70248;BME280;57641;51.416;5.506;2023-07-31T00:20:14;101192.94;;;21.07;66.75
70248;BME280;57641;51.416;5.506;2023-07-31T00:22:40;101191.69;;;21.16;66.93
70248;BME280;57641;51.416;5.506;2023-07-31T00:25:06;101185.25;;;21.04;67.49
70248;BME280;57641;51.416;5.506;2023-07-31T00:27:36;101183.53;;;21.23;66.65
70248;BME280;57641;51.416;5.506;2023-07-31T00:30:03;101187.31;;;21.08;66.67
70248;BME280;57641;51.416;5.506;2023-07-31T00:32:30;101184.63;;;21.02;66.48
70248;BME280;57641;51.416;5.506;2023-07-31T00:34:56;101172.56;;;20.98;67.44
70248;BME280;57641;51.416;5.506;2023-07-31T00:37:22;101187.34;;;21.02;66.80
70248;BME280;57641;51.416;5.506;2023-07-31T00:39:48;101187.13;;;21.03;66.83
70248;BME280;57641;51.416;5.506;2023-07-31T00:42:14;101175.84;;;21.20;66.15
70248;BME280;57641;51.416;5.506;2023-07-31T00:44:39;101180.50;;;20.93;66.31
70248;BME280;57641;51.416;5.506;2023-07-31T00:47:08;101171.16;;;20.62;67.66
70248;BME280;57641;51.416;5.506;2023-07-31T00:49:34;101178.19;;;20.90;67.31
70248;BME280;57641;51.416;5.506;2023-07-31T00:51:59;101184.84;;;20.94;66.59
70248;BME280;57641;51.416;5.506;2023-07-31T00:54:26;101177.56;;;20.94;66.87
70248;BME280;57641;51.416;5.506;2023-07-31T00:56:57;101177.72;;;21.13;66.23
70248;BME280;57641;51.416;5.506;2023-07-31T00:59:23;101170.00;;;21.16;65.48
70248;BME280;57641;51.416;5.506;2023-07-31T01:01:55;101176.75;;;20.87;65.93
70248;BME280;57641;51.416;5.506;2023-07-31T01:04:24;101167.34;;;20.96;65.97
70248;BME280;57641;51.416;5.506;2023-07-31T01:12:20;101163.66;;;20.71;66.47
70248;BME280;57641;51.416;5.506;2023-07-31T01:15:12;101166.72;;;20.94;65.56
70248;BME280;57641;51.416;5.506;2023-07-31T01:17:40;101171.53;;;20.86;65.12
70248;BME280;57641;51.416;5.506;2023-07-31T01:20:13;101163.59;;;20.91;64.69
70248;BME280;57641;51.416;5.506;2023-07-31T01:23:08;101166.09;;;20.92;65.38
70248;BME280;57641;51.416;5.506;2023-07-31T01:31:07;101166.50;;;20.96;64.64
70248;BME280;57641;51.416;5.506;2023-07-31T01:33:37;101164.25;;;20.86;64.81
70248;BME280;57641;51.416;5.506;2023-07-31T01:36:04;101168.44;;;20.82;64.45
70248;BME280;57641;51.416;5.506;2023-07-31T01:38:39;101160.72;;;20.79;63.99
70248;BME280;57641;51.416;5.506;2023-07-31T01:41:11;101166.31;;;20.91;64.41
70248;BME280;57641;51.416;5.506;2023-07-31T01:43:36;101158.63;;;20.88;64.10
70248;BME280;57641;51.416;5.506;2023-07-31T01:46:02;101167.41;;;20.63;63.78
70248;BME280;57641;51.416;5.506;2023-07-31T01:48:27;101167.22;;;20.65;64.57
70248;BME280;57641;51.416;5.506;2023-07-31T01:50:56;101160.06;;;20.84;64.54
70248;BME280;57641;51.416;5.506;2023-07-31T01:53:26;101158.22;;;20.78;64.16
70248;BME280;57641;51.416;5.506;2023-07-31T01:55:55;101160.25;;;20.89;64.13
70248;BME280;57641;51.416;5.506;2023-07-31T01:58:20;101152.63;;;20.73;63.95
70248;BME280;57641;51.416;5.506;2023-07-31T02:00:48;101156.75;;;20.88;63.39
70248;BME280;57641;51.416;5.506;2023-07-31T02:03:14;101149.41;;;20.95;63.02
70248;BME280;57641;51.416;5.506;2023-07-31T02:05:56;101145.66;;;20.96;62.95
70248;BME280;57641;51.416;5.506;2023-07-31T02:08:22;101143.59;;;20.85;63.45
70248;BME280;57641;51.416;5.506;2023-07-31T02:10:48;101137.59;;;20.77;63.50
70248;BME280;57641;51.416;5.506;2023-07-31T02:13:13;101128.44;;;20.71;63.47
70248;BME280;57641;51.416;5.506;2023-07-31T02:15:40;101131.72;;;20.86;62.97
70248;BME280;57641;51.416;5.506;2023-07-31T02:18:05;101126.09;;;20.81;63.16
70248;BME280;57641;51.416;5.506;2023-07-31T02:20:34;101126.50;;;20.91;62.47
70248;BME280;57641;51.416;5.506;2023-07-31T02:23:00;101123.81;;;20.78;62.90
70248;BME280;57641;51.416;5.506;2023-07-31T02:25:27;101115.66;;;20.85;62.75
70248;BME280;57641;51.416;5.506;2023-07-31T02:27:52;101123.78;;;20.91;62.84
70248;BME280;57641;51.416;5.506;2023-07-31T02:30:18;101111.72;;;20.87;63.03
70248;BME280;57641;51.416;5.506;2023-07-31T02:32:47;101115.53;;;20.60;63.50
70248;BME280;57641;51.416;5.506;2023-07-31T02:35:12;101106.13;;;20.69;63.29
70248;BME280;57641;51.416;5.506;2023-07-31T02:37:42;101103.34;;;20.89;62.96
70248;BME280;57641;51.416;5.506;2023-07-31T02:40:14;101101.63;;;20.37;64.55
70248;BME280;57641;51.416;5.506;2023-07-31T02:42:40;101098.81;;;20.76;62.93
70248;BME280;57641;51.416;5.506;2023-07-31T02:45:08;101095.81;;;20.97;63.22
70248;BME280;57641;51.416;5.506;2023-07-31T02:47:35;101096.56;;;20.60;63.62
70248;BME280;57641;51.416;5.506;2023-07-31T02:50:07;101098.38;;;20.86;63.29
70248;BME280;57641;51.416;5.506;2023-07-31T02:52:33;101096.88;;;20.90;62.95
70248;BME280;57641;51.416;5.506;2023-07-31T02:54:58;101094.16;;;20.90;63.14
70248;BME280;57641;51.416;5.506;2023-07-31T02:57:28;101098.00;;;20.69;63.61
70248;BME280;57641;51.416;5.506;2023-07-31T02:59:56;101098.38;;;20.86;63.04
70248;BME280;57641;51.416;5.506;2023-07-31T03:02:22;101093.78;;;20.80;63.95
70248;BME280;57641;51.416;5.506;2023-07-31T03:04:48;101089.97;;;20.94;63.39
70248;BME280;57641;51.416;5.506;2023-07-31T03:07:13;101081.72;;;20.76;63.78
70248;BME280;57641;51.416;5.506;2023-07-31T03:09:40;101087.25;;;20.94;63.45
70248;BME280;57641;51.416;5.506;2023-07-31T03:12:07;101084.78;;;20.99;63.31
70248;BME280;57641;51.416;5.506;2023-07-31T03:14:33;101099.53;;;21.10;63.50
70248;BME280;57641;51.416;5.506;2023-07-31T03:16:59;101089.97;;;20.94;63.43
70248;BME280;57641;51.416;5.506;2023-07-31T03:19:31;101094.59;;;20.87;64.02
70248;BME280;57641;51.416;5.506;2023-07-31T03:21:58;101090.41;;;20.91;63.42
70248;BME280;57641;51.416;5.506;2023-07-31T03:24:26;101085.72;;;21.11;63.02
70248;BME280;57641;51.416;5.506;2023-07-31T03:26:51;101084.94;;;21.04;63.35
70248;BME280;57641;51.416;5.506;2023-07-31T03:29:26;101090.22;;;20.86;63.52
70248;BME280;57641;51.416;5.506;2023-07-31T03:31:52;101087.59;;;21.11;63.44
70248;BME280;57641;51.416;5.506;2023-07-31T03:34:18;101082.41;;;21.09;62.97
70248;BME280;57641;51.416;5.506;2023-07-31T03:36:44;101068.41;;;21.19;62.75
70248;BME280;57641;51.416;5.506;2023-07-31T03:39:10;101069.59;;;20.85;63.84
70248;BME280;57641;51.416;5.506;2023-07-31T03:41:36;101070.31;;;21.18;62.83
70248;BME280;57641;51.416;5.506;2023-07-31T03:44:02;101077.22;;;21.14;63.26
70248;BME280;57641;51.416;5.506;2023-07-31T03:46:34;101050.88;;;21.21;63.08
70248;BME280;57641;51.416;5.506;2023-07-31T03:49:01;101054.94;;;21.37;63.29
70248;BME280;57641;51.416;5.506;2023-07-31T03:51:27;101054.09;;;21.36;63.32
70248;BME280;57641;51.416;5.506;2023-07-31T03:53:52;101047.94;;;21.23;63.24
70248;BME280;57641;51.416;5.506;2023-07-31T03:56:18;101043.75;;;21.27;63.27
70248;BME280;57641;51.416;5.506;2023-07-31T03:58:43;101046.38;;;21.40;63.08
70248;BME280;57641;51.416;5.506;2023-07-31T04:01:09;101042.91;;;21.26;63.46
70248;BME280;57641;51.416;5.506;2023-07-31T04:03:35;101034.69;;;21.39;63.14
70248;BME280;57641;51.416;5.506;2023-07-31T04:06:00;101038.31;;;21.27;63.75
70248;BME280;57641;51.416;5.506;2023-07-31T04:08:26;101034.53;;;21.34;63.51
70248;BME280;57641;51.416;5.506;2023-07-31T04:10:51;101020.66;;;21.18;64.06
70248;BME280;57641;51.416;5.506;2023-07-31T04:13:22;101032.72;;;21.22;63.48
70248;BME280;57641;51.416;5.506;2023-07-31T04:15:51;101022.84;;;21.34;63.68
70248;BME280;57641;51.416;5.506;2023-07-31T04:18:17;101016.88;;;21.25;63.88
70248;BME280;57641;51.416;5.506;2023-07-31T04:20:43;101016.38;;;21.35;62.51
70248;BME280;57641;51.416;5.506;2023-07-31T04:23:14;101016.75;;;21.38;63.41
70248;BME280;57641;51.416;5.506;2023-07-31T04:25:40;101009.66;;;21.37;63.57
70248;BME280;57641;51.416;5.506;2023-07-31T04:28:09;101003.19;;;21.38;63.50
70248;BME280;57641;51.416;5.506;2023-07-31T04:30:35;101011.38;;;21.32;63.68
70248;BME280;57641;51.416;5.506;2023-07-31T04:33:01;101005.94;;;21.32;64.11
70248;BME280;57641;51.416;5.506;2023-07-31T04:35:27;101002.31;;;21.44;64.19
70248;BME280;57641;51.416;5.506;2023-07-31T04:37:55;101000.19;;;21.22;64.44
70248;BME280;57641;51.416;5.506;2023-07-31T04:40:21;101003.47;;;21.30;64.31
70248;BME280;57641;51.416;5.506;2023-07-31T04:42:47;100993.38;;;21.37;64.26
70248;BME280;57641;51.416;5.506;2023-07-31T04:45:16;100991.84;;;21.23;64.73
70248;BME280;57641;51.416;5.506;2023-07-31T04:47:41;100987.41;;;21.29;65.11
70248;BME280;57641;51.416;5.506;2023-07-31T04:50:08;100994.84;;;21.40;64.64
70248;BME280;57641;51.416;5.506;2023-07-31T04:52:34;100994.44;;;21.36;64.65
70248;BME280;57641;51.416;5.506;2023-07-31T04:55:00;100993.34;;;21.13;65.60
70248;BME280;57641;51.416;5.506;2023-07-31T04:57:25;100984.88;;;21.34;64.69
70248;BME280;57641;51.416;5.506;2023-07-31T05:00:00;100986.03;;;21.20;65.42
70248;BME280;57641;51.416;5.506;2023-07-31T05:02:26;100982.81;;;21.29;64.47
70248;BME280;57641;51.416;5.506;2023-07-31T05:04:52;100980.28;;;21.34;64.98
70248;BME280;57641;51.416;5.506;2023-07-31T05:07:17;100977.16;;;21.31;64.99
70248;BME280;57641;51.416;5.506;2023-07-31T05:09:46;100978.53;;;21.46;64.58
70248;BME280;57641;51.416;5.506;2023-07-31T05:12:12;100976.59;;;21.22;65.47
70248;BME280;57641;51.416;5.506;2023-07-31T05:14:44;100981.50;;;21.38;64.69
70248;BME280;57641;51.416;5.506;2023-07-31T05:17:10;100970.16;;;20.85;66.25
70248;BME280;57641;51.416;5.506;2023-07-31T05:19:36;100971.38;;;20.89;66.79
70248;BME280;57641;51.416;5.506;2023-07-31T05:22:02;100977.94;;;21.06;66.20
70248;BME280;57641;51.416;5.506;2023-07-31T05:24:27;100967.94;;;21.07;66.46
70248;BME280;57641;51.416;5.506;2023-07-31T05:26:53;100962.97;;;20.66;67.78
70248;BME280;57641;51.416;5.506;2023-07-31T05:29:18;100965.34;;;20.87;67.32
70248;BME280;57641;51.416;5.506;2023-07-31T05:31:44;100963.75;;;20.73;68.16
70248;BME280;57641;51.416;5.506;2023-07-31T05:34:13;100967.94;;;21.07;66.67
70248;BME280;57641;51.416;5.506;2023-07-31T05:36:38;100974.34;;;21.13;66.91
70248;BME280;57641;51.416;5.506;2023-07-31T05:39:04;100969.59;;;21.08;67.12
70248;BME280;57641;51.416;5.506;2023-07-31T05:41:34;100967.88;;;21.14;67.06
70248;BME280;57641;51.416;5.506;2023-07-31T05:44:10;100971.13;;;21.29;66.68
70248;BME280;57641;51.416;5.506;2023-07-31T05:46:35;100959.84;;;21.32;66.67
70248;BME280;57641;51.416;5.506;2023-07-31T05:49:05;100956.53;;;21.30;66.96
70248;BME280;57641;51.416;5.506;2023-07-31T05:51:34;100957.06;;;21.38;66.98
70248;BME280;57641;51.416;5.506;2023-07-31T05:53:59;100970.97;;;21.48;66.78
70248;BME280;57641;51.416;5.506;2023-07-31T05:56:26;100960.00;;;21.37;66.88
70248;BME280;57641;51.416;5.506;2023-07-31T05:58:52;100966.59;;;21.23;67.50
70248;BME280;57641;51.416;5.506;2023-07-31T06:01:27;100947.94;;;21.33;67.29
70248;BME280;57641;51.416;5.506;2023-07-31T06:03:52;100953.66;;;21.25;67.62
70248;BME280;57641;51.416;5.506;2023-07-31T06:06:18;100949.31;;;21.11;68.80
70248;BME280;57641;51.416;5.506;2023-07-31T06:08:46;100949.63;;;21.02;68.58
70248;BME280;57641;51.416;5.506;2023-07-31T06:11:12;100941.97;;;21.24;68.48
70248;BME280;57641;51.416;5.506;2023-07-31T06:13:38;100943.84;;;21.24;68.04
70248;BME280;57641;51.416;5.506;2023-07-31T06:16:10;100946.88;;;21.09;68.22
70248;BME280;57641;51.416;5.506;2023-07-31T06:18:39;100937.47;;;21.05;68.91
70248;BME280;57641;51.416;5.506;2023-07-31T06:21:07;100941.28;;;21.04;68.55
70248;BME280;57641;51.416;5.506;2023-07-31T06:23:33;100939.56;;;21.10;68.21
70248;BME280;57641;51.416;5.506;2023-07-31T06:26:02;100920.13;;;21.19;68.12
70248;BME280;57641;51.416;5.506;2023-07-31T06:28:32;100927.00;;;21.15;68.12
70248;BME280;57641;51.416;5.506;2023-07-31T06:30:58;100926.59;;;21.18;68.01
70248;BME280;57641;51.416;5.506;2023-07-31T06:33:24;100932.22;;;21.17;68.30
70248;BME280;57641;51.416;5.506;2023-07-31T06:35:50;100929.81;;;21.02;68.67
70248;BME280;57641;51.416;5.506;2023-07-31T06:38:21;100921.28;;;20.98;69.11
70248;BME280;57641;51.416;5.506;2023-07-31T06:40:58;100929.97;;;20.76;69.86
70248;BME280;57641;51.416;5.506;2023-07-31T06:43:23;100922.00;;;20.87;69.37
70248;BME280;57641;51.416;5.506;2023-07-31T06:45:55;100920.47;;;20.98;69.01
70248;BME280;57641;51.416;5.506;2023-07-31T06:48:23;100907.66;;;21.05;68.45
70248;BME280;57641;51.416;5.506;2023-07-31T06:50:49;100914.19;;;20.97;69.15
70248;BME280;57641;51.416;5.506;2023-07-31T06:53:18;100911.97;;;20.88;69.94
70248;BME280;57641;51.416;5.506;2023-07-31T06:55:44;100912.59;;;20.83;69.78
70248;BME280;57641;51.416;5.506;2023-07-31T06:58:12;100907.56;;;20.93;68.91
70248;BME280;57641;51.416;5.506;2023-07-31T07:00:41;100905.94;;;21.11;68.54
70248;BME280;57641;51.416;5.506;2023-07-31T07:03:07;100909.03;;;20.89;69.72
70248;BME280;57641;51.416;5.506;2023-07-31T07:05:33;100911.06;;;20.94;69.30
70248;BME280;57641;51.416;5.506;2023-07-31T07:07:59;100911.00;;;21.07;69.15
70248;BME280;57641;51.416;5.506;2023-07-31T07:10:24;100902.16;;;20.93;69.20
70248;BME280;57641;51.416;5.506;2023-07-31T07:12:50;100906.06;;;20.97;69.32
70248;BME280;57641;51.416;5.506;2023-07-31T07:15:15;100910.03;;;20.95;69.51
70248;BME280;57641;51.416;5.506;2023-07-31T07:17:49;100902.47;;;21.03;69.58
70248;BME280;57641;51.416;5.506;2023-07-31T07:20:15;100891.72;;;20.90;69.95
70248;BME280;57641;51.416;5.506;2023-07-31T07:22:40;100894.50;;;21.08;69.21
70248;BME280;57641;51.416;5.506;2023-07-31T07:25:18;100887.81;;;21.11;69.49
70248;BME280;57641;51.416;5.506;2023-07-31T07:27:44;100889.03;;;21.15;69.04
70248;BME280;57641;51.416;5.506;2023-07-31T07:30:21;100883.34;;;20.98;69.73
70248;BME280;57641;51.416;5.506;2023-07-31T07:32:52;100877.63;;;21.06;69.49
70248;BME280;57641;51.416;5.506;2023-07-31T07:35:17;100880.91;;;21.15;69.46
70248;BME280;57641;51.416;5.506;2023-07-31T07:37:43;100888.94;;;21.03;68.92
70248;BME280;57641;51.416;5.506;2023-07-31T07:40:09;100897.94;;;20.97;69.81
70248;BME280;57641;51.416;5.506;2023-07-31T07:42:35;100893.63;;;20.83;69.60
70248;BME280;57641;51.416;5.506;2023-07-31T07:45:01;100890.88;;;20.90;70.10
70248;BME280;57641;51.416;5.506;2023-07-31T07:47:27;100892.94;;;20.94;70.16
70248;BME280;57641;51.416;5.506;2023-07-31T07:49:53;100896.28;;;20.96;70.24
70248;BME280;57641;51.416;5.506;2023-07-31T07:52:19;100897.09;;;20.97;69.66
70248;BME280;57641;51.416;5.506;2023-07-31T07:54:47;100893.06;;;20.81;70.06
70248;BME280;57641;51.416;5.506;2023-07-31T07:57:15;100888.94;;;21.03;69.09
70248;BME280;57641;51.416;5.506;2023-07-31T07:59:41;100890.31;;;21.13;68.63
70248;BME280;57641;51.416;5.506;2023-07-31T08:02:07;100895.31;;;21.16;68.41
70248;BME280;57641;51.416;5.506;2023-07-31T08:04:35;100888.22;;;20.83;69.52
70248;BME280;57641;51.416;5.506;2023-07-31T08:07:05;100895.41;;;21.02;68.87
70248;BME280;57641;51.416;5.506;2023-07-31T08:09:31;100891.75;;;21.15;68.75
70248;BME280;57641;51.416;5.506;2023-07-31T08:11:57;100886.59;;;21.07;68.81
70248;BME280;57641;51.416;5.506;2023-07-31T08:14:27;100886.22;;;21.03;69.49
70248;BME280;57641;51.416;5.506;2023-07-31T08:16:56;100876.63;;;21.01;69.70
70248;BME280;57641;51.416;5.506;2023-07-31T08:19:25;100886.63;;;21.00;69.45
70248;BME280;57641;51.416;5.506;2023-07-31T08:21:53;100873.88;;;21.07;69.08
70248;BME280;57641;51.416;5.506;2023-07-31T08:24:19;100883.97;;;21.25;68.99
70248;BME280;57641;51.416;5.506;2023-07-31T08:26:55;100882.69;;;20.72;69.96
70248;BME280;57641;51.416;5.506;2023-07-31T08:29:23;100884.97;;;20.99;69.01
70248;BME280;57641;51.416;5.506;2023-07-31T08:31:53;100886.75;;;21.12;69.24
70248;BME280;57641;51.416;5.506;2023-07-31T08:34:21;100879.03;;;21.16;69.66
70248;BME280;57641;51.416;5.506;2023-07-31T08:36:47;100876.59;;;21.32;69.07
70248;BME280;57641;51.416;5.506;2023-07-31T08:39:22;100885.28;;;21.16;69.16
70248;BME280;57641;51.416;5.506;2023-07-31T08:41:58;100883.34;;;20.98;69.28
70248;BME280;57641;51.416;5.506;2023-07-31T08:44:39;100881.75;;;21.16;69.49
70248;BME280;57641;51.416;5.506;2023-07-31T08:47:09;100879.28;;;21.07;69.16
70248;BME280;57641;51.416;5.506;2023-07-31T08:49:37;100880.84;;;20.97;70.12
70248;BME280;57641;51.416;5.506;2023-07-31T08:52:04;100879.16;;;20.96;69.74
70248;BME280;57641;51.416;5.506;2023-07-31T08:54:30;100883.34;;;20.98;68.79
70248;BME280;57641;51.416;5.506;2023-07-31T08:56:58;100887.94;;;21.23;68.82
70248;BME280;57641;51.416;5.506;2023-07-31T08:59:28;100879.66;;;21.18;68.42
70248;BME280;57641;51.416;5.506;2023-07-31T09:01:57;100873.72;;;21.02;69.20
70248;BME280;57641;51.416;5.506;2023-07-31T09:04:30;100876.50;;;21.21;68.81
70248;BME280;57641;51.416;5.506;2023-07-31T09:07:01;100873.94;;;21.26;68.95
70248;BME280;57641;51.416;5.506;2023-07-31T09:09:35;100874.03;;;21.37;68.33
70248;BME280;57641;51.416;5.506;2023-07-31T09:12:03;100871.94;;;21.39;68.42
70248;BME280;57641;51.416;5.506;2023-07-31T09:14:35;100876.63;;;21.51;68.42
70248;BME280;57641;51.416;5.506;2023-07-31T09:17:03;100872.16;;;21.38;68.52
70248;BME280;57641;51.416;5.506;2023-07-31T09:19:33;100875.66;;;21.45;68.37
70248;BME280;57641;51.416;5.506;2023-07-31T09:22:02;100867.19;;;21.35;68.72
70248;BME280;57641;51.416;5.506;2023-07-31T09:24:30;100865.94;;;21.56;68.10
70248;BME280;57641;51.416;5.506;2023-07-31T09:27:01;100855.69;;;21.58;68.45
70248;BME280;57641;51.416;5.506;2023-07-31T09:29:28;100865.16;;;21.48;68.61
70248;BME280;57641;51.416;5.506;2023-07-31T09:31:55;100859.84;;;21.60;68.43
70248;BME280;57641;51.416;5.506;2023-07-31T09:34:37;100859.69;;;21.73;68.60
70248;BME280;57641;51.416;5.506;2023-07-31T09:37:05;100847.84;;;21.86;67.94
70248;BME280;57641;51.416;5.506;2023-07-31T09:39:46;100858.56;;;21.81;67.68
70248;BME280;57641;51.416;5.506;2023-07-31T09:42:12;100847.16;;;21.90;67.18
70248;BME280;57641;51.416;5.506;2023-07-31T09:44:42;100855.63;;;21.82;67.83
70248;BME280;57641;51.416;5.506;2023-07-31T09:47:28;100849.66;;;21.74;68.27
70248;BME280;57641;51.416;5.506;2023-07-31T09:49:56;100850.25;;;21.76;67.60
70248;BME280;57641;51.416;5.506;2023-07-31T09:52:26;100859.38;;;21.45;69.38
70248;BME280;57641;51.416;5.506;2023-07-31T09:54:53;100850.78;;;21.48;68.39
70248;BME280;57641;51.416;5.506;2023-07-31T09:57:23;100844.38;;;21.61;68.24
70248;BME280;57641;51.416;5.506;2023-07-31T09:59:52;100848.59;;;21.75;67.88
70248;BME280;57641;51.416;5.506;2023-07-31T10:02:22;100847.03;;;21.67;67.76
70248;BME280;57641;51.416;5.506;2023-07-31T10:05:04;100846.88;;;21.62;68.02
70248;BME280;57641;51.416;5.506;2023-07-31T10:07:31;100843.72;;;21.83;67.42
70248;BME280;57641;51.416;5.506;2023-07-31T10:10:00;100841.59;;;21.85;66.99
70248;BME280;57641;51.416;5.506;2023-07-31T10:12:27;100844.31;;;21.85;67.03
70248;BME280;57641;51.416;5.506;2023-07-31T10:15:04;100840.03;;;21.78;67.10
70248;BME280;57641;51.416;5.506;2023-07-31T10:17:31;100834.88;;;21.88;67.10
70248;BME280;57641;51.416;5.506;2023-07-31T10:20:02;100835.56;;;22.02;67.08
70248;BME280;57641;51.416;5.506;2023-07-31T10:22:33;100840.06;;;21.89;67.14
70248;BME280;57641;51.416;5.506;2023-07-31T10:25:00;100834.50;;;21.84;67.22
70248;BME280;57641;51.416;5.506;2023-07-31T10:27:27;100840.47;;;21.93;67.11
70248;BME280;57641;51.416;5.506;2023-07-31T10:29:57;100842.13;;;21.58;67.09
70248;BME280;57641;51.416;5.506;2023-07-31T10:32:24;100831.78;;;21.84;66.96
70248;BME280;57641;51.416;5.506;2023-07-31T10:34:51;100839.91;;;21.48;67.69
70248;BME280;57641;51.416;5.506;2023-07-31T10:37:52;100832.09;;;21.76;67.72
70248;BME280;57641;51.416;5.506;2023-07-31T10:40:23;100838.38;;;21.77;67.50
70248;BME280;57641;51.416;5.506;2023-07-31T10:42:54;100848.00;;;21.55;67.26
70248;BME280;57641;51.416;5.506;2023-07-31T10:45:39;100836.19;;;21.67;67.61
70248;BME280;57641;51.416;5.506;2023-07-31T10:48:13;100842.94;;;21.58;67.66
70248;BME280;57641;51.416;5.506;2023-07-31T10:50:50;100835.13;;;22.05;67.08
70248;BME280;57641;51.416;5.506;2023-07-31T10:53:30;100841.28;;;22.12;67.31
70248;BME280;57641;51.416;5.506;2023-07-31T10:56:00;100844.19;;;22.28;66.66
70248;BME280;57641;51.416;5.506;2023-07-31T10:58:29;100832.56;;;22.40;66.85
70248;BME280;57641;51.416;5.506;2023-07-31T11:00:59;100833.66;;;22.50;66.24
70248;BME280;57641;51.416;5.506;2023-07-31T11:03:26;100824.09;;;22.59;67.35
70248;BME280;57641;51.416;5.506;2023-07-31T11:06:02;100827.72;;;22.71;65.33
70248;BME280;57641;51.416;5.506;2023-07-31T11:08:32;100829.13;;;22.86;64.37
70248;BME280;57641;51.416;5.506;2023-07-31T11:13:33;100820.66;;;22.64;64.84
70248;BME280;57641;51.416;5.506;2023-07-31T11:16:05;100832.78;;;22.80;64.71
70248;BME280;57641;51.416;5.506;2023-07-31T11:18:31;100825.50;;;22.50;64.68
70248;BME280;57641;51.416;5.506;2023-07-31T11:20:57;100834.78;;;22.31;65.56
70248;BME280;57641;51.416;5.506;2023-07-31T11:23:23;100823.22;;;22.77;65.11
70248;BME280;57641;51.416;5.506;2023-07-31T11:25:50;100823.59;;;22.09;65.42
70248;BME280;57641;51.416;5.506;2023-07-31T11:28:17;100820.28;;;22.49;64.96
70248;BME280;57641;51.416;5.506;2023-07-31T11:30:46;100827.47;;;22.43;65.10
70248;BME280;57641;51.416;5.506;2023-07-31T11:33:13;100821.56;;;22.76;64.60
70248;BME280;57641;51.416;5.506;2023-07-31T11:35:48;100827.34;;;22.38;65.61
70248;BME280;57641;51.416;5.506;2023-07-31T11:38:31;100820.75;;;22.16;65.02
70248;BME280;57641;51.416;5.506;2023-07-31T11:40:58;100814.81;;;22.37;65.58
70248;BME280;57641;51.416;5.506;2023-07-31T11:43:24;100820.38;;;22.30;65.52
70248;BME280;57641;51.416;5.506;2023-07-31T11:45:56;100809.63;;;22.47;65.82
70248;BME280;57641;51.416;5.506;2023-07-31T11:48:33;100820.94;;;22.62;65.11
70248;BME280;57641;51.416;5.506;2023-07-31T11:51:02;100812.03;;;22.55;65.86
70248;BME280;57641;51.416;5.506;2023-07-31T11:56:18;100810.97;;;22.15;66.42
70248;BME280;57641;51.416;5.506;2023-07-31T11:58:46;100808.44;;;22.43;65.75
70248;BME280;57641;51.416;5.506;2023-07-31T12:01:15;100806.50;;;22.20;66.30
70248;BME280;57641;51.416;5.506;2023-07-31T12:03:44;100806.69;;;22.49;66.08
70248;BME280;57641;51.416;5.506;2023-07-31T12:06:10;100799.72;;;22.41;65.69
70248;BME280;57641;51.416;5.506;2023-07-31T12:08:36;100807.56;;;22.19;66.12
70248;BME280;57641;51.416;5.506;2023-07-31T12:11:06;100801.78;;;22.57;65.93
70248;BME280;57641;51.416;5.506;2023-07-31T12:13:32;100798.78;;;22.47;65.65
70248;BME280;57641;51.416;5.506;2023-07-31T12:16:00;100796.34;;;22.57;66.08
70248;BME280;57641;51.416;5.506;2023-07-31T12:18:28;100799.06;;;22.69;65.84
70248;BME280;57641;51.416;5.506;2023-07-31T12:20:57;100796.56;;;22.56;65.73
70248;BME280;57641;51.416;5.506;2023-07-31T12:23:25;100794.03;;;22.72;65.17
70248;BME280;57641;51.416;5.506;2023-07-31T12:28:30;100774.59;;;22.69;65.30
70248;BME280;57641;51.416;5.506;2023-07-31T12:31:00;100772.66;;;22.88;64.70
70248;BME280;57641;51.416;5.506;2023-07-31T12:33:33;100772.28;;;22.84;64.66
70248;BME280;57641;51.416;5.506;2023-07-31T12:36:01;100763.44;;;22.77;64.52
70248;BME280;57641;51.416;5.506;2023-07-31T12:38:28;100768.03;;;22.77;64.41
70248;BME280;57641;51.416;5.506;2023-07-31T12:40:53;100773.38;;;22.53;64.48
70248;BME280;57641;51.416;5.506;2023-07-31T12:43:19;100781.69;;;22.70;64.43
70248;BME280;57641;51.416;5.506;2023-07-31T12:45:45;100772.03;;;22.74;64.64
70248;BME280;57641;51.416;5.506;2023-07-31T12:48:13;100761.06;;;22.81;64.39
70248;BME280;57641;51.416;5.506;2023-07-31T12:50:38;100762.47;;;22.95;64.09
70248;BME280;57641;51.416;5.506;2023-07-31T12:53:05;100765.06;;;22.90;64.17
70248;BME280;57641;51.416;5.506;2023-07-31T12:55:30;100747.47;;;22.92;63.78
70248;BME280;57641;51.416;5.506;2023-07-31T12:57:56;100738.81;;;22.95;63.47
70248;BME280;57641;51.416;5.506;2023-07-31T13:00:22;100726.66;;;22.98;63.25
70248;BME280;57641;51.416;5.506;2023-07-31T13:02:48;100747.47;;;23.04;63.01
70248;BME280;57641;51.416;5.506;2023-07-31T13:05:17;100735.75;;;23.03;63.33
70248;BME280;57641;51.416;5.506;2023-07-31T13:07:45;100736.22;;;23.12;63.13
70248;BME280;57641;51.416;5.506;2023-07-31T13:10:10;100736.47;;;22.99;63.35
70248;BME280;57641;51.416;5.506;2023-07-31T13:12:36;100732.56;;;23.06;63.68
70248;BME280;57641;51.416;5.506;2023-07-31T13:15:02;100742.03;;;23.15;62.56